Time;durP1;ratioP1;P1;durP2;ratioP2;P2;SDS_P1;SDS_P2;PMS_P1;PMS_P2;Temp;Humidity;BMP_temperature;BMP_pressure;BME280_temperature;BME280_humidity;BME280_pressure;Samples;Min_cycle;Max_cycle;Signal;HPM_P1;HPM_P2
2023/01/01 00:00:13;;;;;;;12.90;7.53;;;;;;;;;;1037733;28;20053;-75
2023/01/01 00:00:44;;;;;;;11.85;7.00;;;;;;;;;;1038203;28;20561;-75
2023/01/01 00:01:15;;;;;;;13.82;6.57;;;;;;;;;;1036907;28;20484;-75
2023/01/01 00:01:46;;;;;;;14.57;5.95;;;;;;;;;;1037671;28;20087;-74
2023/01/01 00:02:16;;;;;;;15.38;7.93;;;;;;;;;;1037565;28;20551;-75
2023/01/01 00:02:47;;;;;;;16.17;8.02;;;;;;;;;;1037527;28;20045;-74
2023/01/01 00:03:17;;;;;;;14.85;6.63;;;;;;;;;;1037930;28;20029;-74
2023/01/01 00:03:49;;;;;;;17.58;7.10;;;;;;;;;;1038310;28;20022;-74
2023/01/01 00:04:20;;;;;;;13.55;6.57;;;;;;;;;;1038244;28;20075;-74
2023/01/01 00:04:50;;;;;;;23.75;9.27;;;;;;;;;;1038172;28;20071;-75
2023/01/01 00:05:21;;;;;;;18.30;7.13;;;;;;;;;;1038016;28;20033;-74
2023/01/01 00:05:51;;;;;;;24.38;9.05;;;;;;;;;;1037781;28;20032;-74
2023/01/01 00:06:22;;;;;;;14.82;7.03;;;;;;;;;;1037789;28;20025;-75
2023/01/01 00:06:53;;;;;;;19.67;7.45;;;;;;;;;;1037749;28;20032;-75
2023/01/01 00:07:23;;;;;;;22.17;7.05;;;;;;;;;;1038407;28;20030;-74
2023/01/01 00:07:54;;;;;;;14.80;7.93;;;;;;;;;;1037480;28;20025;-74
2023/01/01 00:08:24;;;;;;;20.05;7.93;;;;;;;;;;1037869;28;20022;-74
2023/01/01 00:10:33;;;;;;;17.30;9.10;;;;;;;;;;1037334;28;20029;-74
2023/01/01 00:11:04;;;;;;;17.50;8.05;;;;;;;;;;1037918;28;20049;-74
2023/01/01 00:11:34;;;;;;;17.02;7.63;;;;;;;;;;1036935;28;20033;-74
2023/01/01 00:12:05;;;;;;;14.48;7.80;;;;;;;;;;1037725;28;20111;-74
2023/01/01 00:12:36;;;;;;;22.25;7.78;;;;;;;;;;1038788;28;20386;-74
2023/01/01 00:13:06;;;;;;;17.80;7.50;;;;;;;;;;1036802;28;20028;-74
2023/01/01 00:13:38;;;;;;;18.75;7.05;;;;;;;;;;1038261;28;20370;-74
2023/01/01 00:14:09;;;;;;;13.23;6.65;;;;;;;;;;1036761;28;20393;-75
2023/01/01 00:14:41;;;;;;;17.67;8.38;;;;;;;;;;1038156;28;20022;-75
2023/01/01 00:15:12;;;;;;;16.40;6.60;;;;;;;;;;1036916;28;20575;-74
2023/01/01 00:15:42;;;;;;;16.42;8.30;;;;;;;;;;1037918;28;20028;-74
2023/01/01 00:16:13;;;;;;;18.02;7.10;;;;;;;;;;1037745;28;20021;-74
2023/01/01 00:16:44;;;;;;;20.02;8.23;;;;;;;;;;1036942;28;20021;-74
2023/01/01 00:17:14;;;;;;;18.63;7.60;;;;;;;;;;1037277;28;20018;-75
2023/01/01 00:17:45;;;;;;;14.63;7.03;;;;;;;;;;1037663;28;20110;-74
2023/01/01 00:18:15;;;;;;;21.48;7.53;;;;;;;;;;1036672;28;20075;-74
2023/01/01 00:18:46;;;;;;;14.27;6.90;;;;;;;;;;1037863;28;20018;-75
2023/01/01 00:19:16;;;;;;;17.35;7.15;;;;;;;;;;1036712;28;20025;-74
2023/01/01 00:19:47;;;;;;;14.98;6.53;;;;;;;;;;1037502;28;20025;-74
2023/01/01 00:20:18;;;;;;;13.73;5.88;;;;;;;;;;1037356;28;20308;-74
2023/01/01 00:20:48;;;;;;;17.88;6.15;;;;;;;;;;1037533;28;20068;-75
2023/01/01 00:21:19;;;;;;;15.93;6.95;;;;;;;;;;1036615;28;20083;-74
2023/01/01 00:21:49;;;;;;;11.23;6.30;;;;;;;;;;1037657;28;20386;-74
2023/01/01 00:22:20;;;;;;;11.90;6.10;;;;;;;;;;1037768;28;20390;-75
2023/01/01 00:22:50;;;;;;;18.15;7.53;;;;;;;;;;1037694;28;20443;-75
2023/01/01 00:23:21;;;;;;;22.10;6.30;;;;;;;;;;1037405;28;20478;-74
2023/01/01 00:23:51;;;;;;;16.98;5.80;;;;;;;;;;1037521;28;20108;-74
2023/01/01 00:24:22;;;;;;;18.10;7.75;;;;;;;;;;1038506;28;20076;-74
2023/01/01 00:24:53;;;;;;;13.98;6.35;;;;;;;;;;1033008;28;20026;-75
2023/01/01 00:25:24;;;;;;;16.65;6.63;;;;;;;;;;1037953;28;20043;-75
2023/01/01 00:25:54;;;;;;;13.00;5.57;;;;;;;;;;1037696;28;20028;-74
2023/01/01 00:26:25;;;;;;;11.57;5.32;;;;;;;;;;1033385;28;20041;-75
2023/01/01 00:26:55;;;;;;;12.65;5.97;;;;;;;;;;1038392;28;20033;-74
2023/01/01 00:27:26;;;;;;;10.73;5.72;;;;;;;;;;1037705;28;20056;-74
2023/01/01 00:27:56;;;;;;;14.30;5.85;;;;;;;;;;1035569;28;20026;-74
2023/01/01 00:28:27;;;;;;;9.07;4.80;;;;;;;;;;1033122;28;20463;-74
2023/01/01 00:28:58;;;;;;;10.55;5.10;;;;;;;;;;1033611;28;20837;-74
2023/01/01 00:29:28;;;;;;;15.45;6.22;;;;;;;;;;1033454;28;20397;-74
2023/01/01 00:30:00;;;;;;;11.15;4.78;;;;;;;;;;1037390;28;20032;-74
2023/01/01 00:30:30;;;;;;;12.18;5.53;;;;;;;;;;1037865;28;20021;-74
2023/01/01 00:31:05;;;;;;;18.38;6.90;;;;;;;;;;1037692;28;20018;-74
2023/01/01 00:31:36;;;;;;;9.90;5.45;;;;;;;;;;1034451;28;20030;-75
2023/01/01 00:32:06;;;;;;;9.13;4.93;;;;;;;;;;1035261;28;20057;-74
2023/01/01 00:32:37;;;;;;;8.07;5.00;;;;;;;;;;1036139;28;20157;-74
2023/01/01 00:33:07;;;;;;;9.70;4.95;;;;;;;;;;1037565;28;20025;-75
2023/01/01 00:33:38;;;;;;;9.82;4.32;;;;;;;;;;1033405;28;20026;-74
2023/01/01 00:34:09;;;;;;;10.50;5.07;;;;;;;;;;1037282;28;20099;-75
2023/01/01 00:34:39;;;;;;;13.70;5.65;;;;;;;;;;1037413;28;20021;-74
2023/01/01 00:35:10;;;;;;;11.70;4.85;;;;;;;;;;1033369;28;20034;-74
2023/01/01 00:35:40;;;;;;;10.18;4.32;;;;;;;;;;1033279;28;20030;-74
2023/01/01 00:36:13;;;;;;;10.75;4.78;;;;;;;;;;1033623;28;20022;-74
2023/01/01 00:36:43;;;;;;;10.07;5.32;;;;;;;;;;1034829;28;20120;-74
2023/01/01 00:37:14;;;;;;;11.05;4.22;;;;;;;;;;1037368;28;20505;-74
2023/01/01 00:37:44;;;;;;;15.25;6.32;;;;;;;;;;1036446;28;20411;-74
2023/01/01 00:38:15;;;;;;;11.70;5.40;;;;;;;;;;1037208;28;20029;-74
2023/01/01 00:38:46;;;;;;;12.75;4.65;;;;;;;;;;1037400;28;20049;-75
2023/01/01 00:39:16;;;;;;;14.30;4.60;;;;;;;;;;1034874;28;20022;-75
2023/01/01 00:39:47;;;;;;;12.20;4.45;;;;;;;;;;1036649;28;20025;-74
2023/01/01 00:40:18;;;;;;;11.30;5.18;;;;;;;;;;1037379;28;20510;-74
2023/01/01 00:40:48;;;;;;;11.55;6.07;;;;;;;;;;1037397;28;20429;-74
2023/01/01 00:41:19;;;;;;;11.52;5.32;;;;;;;;;;1037644;28;20061;-74
2023/01/01 00:41:49;;;;;;;11.00;5.68;;;;;;;;;;1037636;28;20120;-74
2023/01/01 00:42:20;;;;;;;19.23;6.15;;;;;;;;;;1037523;28;20018;-74
2023/01/01 00:42:51;;;;;;;9.23;4.10;;;;;;;;;;1037978;28;20032;-73
2023/01/01 00:43:21;;;;;;;7.53;4.30;;;;;;;;;;1037751;28;20366;-74
2023/01/01 00:43:52;;;;;;;11.98;4.38;;;;;;;;;;1037756;28;20116;-74
2023/01/01 00:44:22;;;;;;;11.75;5.57;;;;;;;;;;1037598;28;20531;-74
2023/01/01 00:44:53;;;;;;;9.43;4.97;;;;;;;;;;1037233;28;20405;-74
2023/01/01 00:45:23;;;;;;;8.90;3.63;;;;;;;;;;1037208;28;20052;-74
2023/01/01 00:45:54;;;;;;;13.05;5.75;;;;;;;;;;1037700;28;20402;-74
2023/01/01 00:46:24;;;;;;;16.00;7.10;;;;;;;;;;1037846;28;20034;-74
2023/01/01 00:46:55;;;;;;;12.90;6.07;;;;;;;;;;1037819;28;20009;-75
2023/01/01 00:47:25;;;;;;;12.20;6.20;;;;;;;;;;1038116;28;20123;-75
2023/01/01 00:47:56;;;;;;;10.27;5.78;;;;;;;;;;1038056;28;20018;-74
2023/01/01 00:48:26;;;;;;;16.30;5.50;;;;;;;;;;1037686;28;20029;-74
2023/01/01 00:48:57;;;;;;;14.88;6.25;;;;;;;;;;1036268;28;20064;-74
2023/01/01 00:49:28;;;;;;;12.93;5.88;;;;;;;;;;1037172;28;20108;-74
2023/01/01 00:49:58;;;;;;;11.60;5.97;;;;;;;;;;1037398;28;20026;-74
2023/01/01 00:50:29;;;;;;;12.43;6.35;;;;;;;;;;1037451;28;20033;-75
2023/01/01 00:50:59;;;;;;;13.35;6.50;;;;;;;;;;1037536;28;20021;-74
2023/01/01 00:51:30;;;;;;;13.35;6.15;;;;;;;;;;1037795;28;20021;-74
2023/01/01 00:52:00;;;;;;;10.80;5.18;;;;;;;;;;1036535;28;20026;-74
2023/01/01 00:52:31;;;;;;;15.90;6.72;;;;;;;;;;1037712;28;20057;-75
2023/01/01 00:53:02;;;;;;;13.35;5.97;;;;;;;;;;1037705;28;20100;-75
2023/01/01 00:53:32;;;;;;;18.45;6.85;;;;;;;;;;1037785;28;20377;-74
2023/01/01 00:54:03;;;;;;;14.32;7.40;;;;;;;;;;1037478;28;20024;-74
2023/01/01 00:54:33;;;;;;;13.52;6.63;;;;;;;;;;1038337;28;20025;-74
2023/01/01 00:55:04;;;;;;;19.08;7.00;;;;;;;;;;1036815;28;20021;-74
2023/01/01 00:55:35;;;;;;;13.23;7.00;;;;;;;;;;1033225;28;20076;-74
2023/01/01 00:56:05;;;;;;;12.82;6.72;;;;;;;;;;1033260;28;20462;-75
2023/01/01 00:56:36;;;;;;;12.02;6.30;;;;;;;;;;1037381;28;20026;-74
2023/01/01 00:57:07;;;;;;;14.15;6.03;;;;;;;;;;1037795;28;20413;-74
2023/01/01 00:57:37;;;;;;;9.60;4.97;;;;;;;;;;1038144;28;20108;-74
2023/01/01 00:58:08;;;;;;;9.80;6.28;;;;;;;;;;1038072;28;20032;-74
2023/01/01 00:58:38;;;;;;;12.88;6.43;;;;;;;;;;1037671;28;20443;-74
2023/01/01 00:59:09;;;;;;;13.45;6.53;;;;;;;;;;1037690;28;20064;-74
2023/01/01 00:59:39;;;;;;;11.15;5.38;;;;;;;;;;1037719;28;20018;-74
2023/01/01 01:00:10;;;;;;;14.35;6.35;;;;;;;;;;1037034;28;20060;-74
2023/01/01 01:00:41;;;;;;;11.25;6.47;;;;;;;;;;1037160;28;20051;-74
2023/01/01 01:01:12;;;;;;;13.35;6.75;;;;;;;;;;1037347;28;20378;-74
2023/01/01 01:01:42;;;;;;;13.82;6.28;;;;;;;;;;1036246;28;20031;-74
2023/01/01 01:02:13;;;;;;;13.90;7.07;;;;;;;;;;1036811;28;20025;-74
2023/01/01 01:02:43;;;;;;;13.20;6.25;;;;;;;;;;1037750;28;20025;-74
2023/01/01 01:03:26;;;;;;;13.70;6.30;;;;;;;;;;1037548;28;20045;-74
2023/01/01 01:03:57;;;;;;;14.18;7.50;;;;;;;;;;1037984;28;20470;-74
2023/01/01 01:04:27;;;;;;;15.10;6.68;;;;;;;;;;1037570;28;20121;-74
2023/01/01 01:04:58;;;;;;;8.93;4.88;;;;;;;;;;1037709;28;20037;-74
2023/01/01 01:05:29;;;;;;;14.35;6.05;;;;;;;;;;1037491;28;20144;-75
2023/01/01 01:06:02;;;;;;;11.13;5.20;;;;;;;;;;1036748;28;20030;-75
2023/01/01 01:06:33;;;;;;;8.60;4.57;;;;;;;;;;1038032;28;20452;-74
2023/01/01 01:07:04;;;;;;;11.95;5.80;;;;;;;;;;1038026;28;20083;-74
2023/01/01 01:07:34;;;;;;;14.98;6.05;;;;;;;;;;1037574;28;20469;-74
2023/01/01 01:08:05;;;;;;;10.45;5.15;;;;;;;;;;1037138;28;20028;-74
2023/01/01 01:08:36;;;;;;;15.02;6.13;;;;;;;;;;1037216;28;20033;-74
2023/01/01 01:09:07;;;;;;;11.23;5.32;;;;;;;;;;1037523;28;20044;-74
2023/01/01 01:09:37;;;;;;;9.25;5.63;;;;;;;;;;1038027;28;20030;-74
2023/01/01 01:10:08;;;;;;;16.38;6.20;;;;;;;;;;1035905;28;20025;-75
2023/01/01 01:10:39;;;;;;;14.13;6.05;;;;;;;;;;1037690;28;20029;-74
2023/01/01 01:11:13;;;;;;;19.60;6.80;;;;;;;;;;1037245;28;20038;-74
2023/01/01 01:11:44;;;;;;;14.05;6.35;;;;;;;;;;1036554;28;20465;-74
2023/01/01 01:12:14;;;;;;;10.13;5.68;;;;;;;;;;1032390;28;20034;-74
2023/01/01 01:12:45;;;;;;;15.43;5.85;;;;;;;;;;1033569;28;20512;-74
2023/01/01 01:13:16;;;;;;;14.20;6.38;;;;;;;;;;1028496;28;20081;-74
2023/01/01 01:13:47;;;;;;;12.35;6.38;;;;;;;;;;1033667;28;20023;-74
2023/01/01 01:14:17;;;;;;;13.52;6.30;;;;;;;;;;1036379;28;20061;-74
2023/01/01 01:14:48;;;;;;;16.40;7.20;;;;;;;;;;1035363;28;20180;-75
2023/01/01 01:15:18;;;;;;;15.88;6.00;;;;;;;;;;1037674;28;20068;-74
2023/01/01 01:15:49;;;;;;;15.15;7.30;;;;;;;;;;1033567;28;20615;-75
2023/01/01 01:16:19;;;;;;;18.33;8.20;;;;;;;;;;1033542;28;20054;-74
2023/01/01 01:16:50;;;;;;;13.82;6.47;;;;;;;;;;1037217;28;20064;-74
2023/01/01 01:17:21;;;;;;;12.70;7.43;;;;;;;;;;1037132;28;20497;-74
2023/01/01 01:17:51;;;;;;;11.10;6.85;;;;;;;;;;1037571;28;20040;-74
2023/01/01 01:18:22;;;;;;;14.95;6.65;;;;;;;;;;1037734;28;20068;-74
2023/01/01 01:18:54;;;;;;;14.32;6.20;;;;;;;;;;1037644;28;20021;-74
2023/01/01 01:19:25;;;;;;;11.88;6.45;;;;;;;;;;1038017;28;20025;-74
2023/01/01 01:19:55;;;;;;;9.88;5.55;;;;;;;;;;1037145;28;20021;-75
2023/01/01 01:20:26;;;;;;;17.35;7.57;;;;;;;;;;1037246;28;20061;-75
2023/01/01 01:20:57;;;;;;;19.92;7.05;;;;;;;;;;1037399;28;20033;-74
2023/01/01 01:21:29;;;;;;;15.27;6.72;;;;;;;;;;1036642;28;20090;-74
2023/01/01 01:21:59;;;;;;;11.32;6.60;;;;;;;;;;1038003;28;20464;-75
2023/01/01 01:22:30;;;;;;;14.05;7.72;;;;;;;;;;1037747;28;20021;-75
2023/01/01 01:23:00;;;;;;;12.30;6.22;;;;;;;;;;1037565;28;20552;-75
2023/01/01 01:23:32;;;;;;;15.38;7.43;;;;;;;;;;1037346;28;20561;-74
2023/01/01 01:24:02;;;;;;;18.42;7.50;;;;;;;;;;1037137;28;20466;-74
2023/01/01 01:24:33;;;;;;;15.07;7.53;;;;;;;;;;1037761;28;20026;-74
2023/01/01 01:25:04;;;;;;;19.80;8.95;;;;;;;;;;1036528;28;20014;-75
2023/01/01 01:25:35;;;;;;;16.85;7.65;;;;;;;;;;1038181;28;20026;-75
2023/01/01 01:26:16;;;;;;;23.65;8.68;;;;;;;;;;1037892;28;20036;-75
2023/01/01 01:26:46;;;;;;;20.42;7.45;;;;;;;;;;1036978;28;20025;-75
2023/01/01 01:27:17;;;;;;;16.67;8.63;;;;;;;;;;1037460;28;20030;-75
2023/01/01 01:27:48;;;;;;;18.60;9.40;;;;;;;;;;1033156;28;20061;-75
2023/01/01 01:28:18;;;;;;;16.00;7.55;;;;;;;;;;1033239;28;20037;-74
2023/01/01 01:28:49;;;;;;;20.70;8.45;;;;;;;;;;1037623;28;20036;-74
2023/01/01 01:29:19;;;;;;;15.65;6.80;;;;;;;;;;1037844;28;20026;-75
2023/01/01 01:29:50;;;;;;;14.18;7.85;;;;;;;;;;1036867;28;20116;-75
2023/01/01 01:30:21;;;;;;;15.18;6.65;;;;;;;;;;1038005;28;20504;-75
2023/01/01 01:30:51;;;;;;;15.15;8.60;;;;;;;;;;1037632;28;20501;-74
2023/01/01 01:31:23;;;;;;;14.32;7.20;;;;;;;;;;1037700;28;20104;-74
2023/01/01 01:31:53;;;;;;;18.42;8.52;;;;;;;;;;1037360;28;20413;-74
2023/01/01 01:32:24;;;;;;;14.32;7.28;;;;;;;;;;1035373;28;20037;-74
2023/01/01 01:32:54;;;;;;;15.07;7.68;;;;;;;;;;1035412;28;20029;-74
2023/01/01 01:33:25;;;;;;;16.00;7.13;;;;;;;;;;1035476;28;20052;-74
2023/01/01 01:33:56;;;;;;;11.00;7.38;;;;;;;;;;1037650;28;20107;-74
2023/01/01 01:34:26;;;;;;;15.48;7.63;;;;;;;;;;1037875;28;20120;-74
2023/01/01 01:34:57;;;;;;;13.02;6.72;;;;;;;;;;1037799;28;20532;-74
2023/01/01 01:35:28;;;;;;;17.38;7.57;;;;;;;;;;1037499;28;20032;-74
2023/01/01 01:35:59;;;;;;;14.45;7.30;;;;;;;;;;1037487;28;20018;-74
2023/01/01 01:36:30;;;;;;;14.35;7.53;;;;;;;;;;1037807;28;20496;-74
2023/01/01 01:37:00;;;;;;;12.82;6.68;;;;;;;;;;1037911;28;20022;-74
2023/01/01 01:37:31;;;;;;;16.88;7.75;;;;;;;;;;1038034;28;20025;-74
2023/01/01 01:38:01;;;;;;;13.52;7.50;;;;;;;;;;1037918;28;20031;-74
2023/01/01 01:38:32;;;;;;;10.40;6.43;;;;;;;;;;1037547;28;20030;-74
2023/01/01 01:39:03;;;;;;;12.05;6.43;;;;;;;;;;1037533;28;20030;-74
2023/01/01 01:39:33;;;;;;;17.90;8.32;;;;;;;;;;1037623;28;20382;-74
2023/01/01 01:40:04;;;;;;;15.27;8.02;;;;;;;;;;1037514;28;20083;-74
2023/01/01 01:40:35;;;;;;;17.80;7.30;;;;;;;;;;1037497;28;20440;-74
2023/01/01 01:41:05;;;;;;;13.93;6.80;;;;;;;;;;1037490;28;20021;-74
2023/01/01 01:41:36;;;;;;;13.02;6.25;;;;;;;;;;1037751;28;20371;-74
2023/01/01 01:42:06;;;;;;;14.48;7.32;;;;;;;;;;1037833;28;20076;-75
2023/01/01 01:42:37;;;;;;;14.60;7.10;;;;;;;;;;1036923;28;20040;-75
2023/01/01 01:43:22;;;;;;;12.65;6.65;;;;;;;;;;1037829;28;20021;-75
2023/01/01 01:44:03;;;;;;;21.42;7.35;;;;;;;;;;1037961;28;20022;-74
2023/01/01 01:44:46;;;;;;;13.68;7.20;;;;;;;;;;1037249;28;20032;-74
2023/01/01 01:45:17;;;;;;;14.75;7.57;;;;;;;;;;1037113;28;20035;-74
2023/01/01 01:45:48;;;;;;;13.57;7.13;;;;;;;;;;1036630;28;20029;-74
2023/01/01 01:46:19;;;;;;;13.50;5.65;;;;;;;;;;1033257;28;20084;-74
2023/01/01 01:46:50;;;;;;;14.80;5.65;;;;;;;;;;1035380;28;20807;-75
2023/01/01 01:47:43;;;;;;;14.07;5.75;;;;;;;;;;1035287;28;20123;-74
2023/01/01 01:48:14;;;;;;;10.30;5.43;;;;;;;;;;1029177;28;20089;-74
2023/01/01 01:48:48;;;;;;;12.35;5.85;;;;;;;;;;1031223;28;20188;-75
2023/01/01 01:49:29;;;;;;;9.98;4.80;;;;;;;;;;1032729;28;20024;-75
2023/01/01 01:50:18;;;;;;;11.90;6.68;;;;;;;;;;1035553;28;20026;-74
2023/01/01 01:50:51;;;;;;;11.13;6.05;;;;;;;;;;1037533;28;20025;-75
2023/01/01 01:51:23;;;;;;;11.32;5.55;;;;;;;;;;1036611;28;20493;-75
2023/01/01 01:51:54;;;;;;;17.05;6.40;;;;;;;;;;1033244;28;20124;-74
2023/01/01 01:52:26;;;;;;;15.50;6.57;;;;;;;;;;1033984;28;20506;-74
2023/01/01 01:53:06;;;;;;;11.95;5.25;;;;;;;;;;1038450;28;20583;-75
2023/01/01 01:53:38;;;;;;;14.30;5.38;;;;;;;;;;1037988;28;20021;-75
2023/01/01 01:54:11;;;;;;;12.25;5.25;;;;;;;;;;1038542;28;20026;-74
2023/01/01 01:54:42;;;;;;;13.80;7.25;;;;;;;;;;1037876;28;20020;-74
2023/01/01 01:55:12;;;;;;;11.60;6.18;;;;;;;;;;1038359;28;20028;-74
2023/01/01 01:55:45;;;;;;;11.20;6.53;;;;;;;;;;1038056;28;20025;-74
2023/01/01 01:56:19;;;;;;;16.83;7.13;;;;;;;;;;1037869;28;20029;-75
2023/01/01 01:56:57;;;;;;;13.93;6.35;;;;;;;;;;1038000;28;20136;-74
2023/01/01 01:57:28;;;;;;;9.27;5.72;;;;;;;;;;1037933;28;20021;-74
2023/01/01 01:57:59;;;;;;;15.00;7.50;;;;;;;;;;1037356;28;20017;-74
2023/01/01 01:58:30;;;;;;;17.13;7.72;;;;;;;;;;1038395;28;20030;-74
2023/01/01 01:59:01;;;;;;;13.43;6.53;;;;;;;;;;1038273;28;20026;-74
2023/01/01 01:59:35;;;;;;;11.32;6.13;;;;;;;;;;1038446;28;20083;-75
2023/01/01 02:00:06;;;;;;;13.23;6.00;;;;;;;;;;1036750;28;20025;-75
2023/01/01 02:00:36;;;;;;;14.80;6.68;;;;;;;;;;1037293;28;20021;-74
2023/01/01 02:01:07;;;;;;;11.13;5.90;;;;;;;;;;1038323;28;20018;-74
2023/01/01 02:01:38;;;;;;;11.38;5.82;;;;;;;;;;1038464;28;20029;-74
2023/01/01 02:02:38;;;;;;;12.10;5.85;;;;;;;;;;1037146;28;20057;-74
2023/01/01 02:03:17;;;;;;;12.95;6.70;;;;;;;;;;1034007;28;20049;-74
2023/01/01 02:03:50;;;;;;;11.85;6.05;;;;;;;;;;1038724;28;20057;-74
2023/01/01 02:04:21;;;;;;;11.18;5.70;;;;;;;;;;1038329;28;20057;-75
2023/01/01 02:04:53;;;;;;;12.82;6.18;;;;;;;;;;1038334;28;20021;-75
2023/01/01 02:05:24;;;;;;;7.68;4.38;;;;;;;;;;1038447;28;20029;-74
2023/01/01 02:05:55;;;;;;;13.02;6.63;;;;;;;;;;1038131;28;20413;-74
2023/01/01 02:06:29;;;;;;;16.08;6.05;;;;;;;;;;1038256;28;20116;-74
2023/01/01 02:07:00;;;;;;;9.50;5.90;;;;;;;;;;1037815;28;20024;-74
2023/01/01 02:07:31;;;;;;;29.90;7.50;;;;;;;;;;1037941;28;20037;-74
2023/01/01 02:08:03;;;;;;;9.65;5.47;;;;;;;;;;1036013;28;20177;-75
2023/01/01 02:08:34;;;;;;;10.73;5.68;;;;;;;;;;1036087;28;20502;-74
2023/01/01 02:09:06;;;;;;;14.85;6.63;;;;;;;;;;1038356;28;20041;-75
2023/01/01 02:09:37;;;;;;;15.95;6.68;;;;;;;;;;1038419;28;20064;-75
2023/01/01 02:10:07;;;;;;;12.77;6.47;;;;;;;;;;1034756;28;20180;-75
2023/01/01 02:10:38;;;;;;;12.73;5.60;;;;;;;;;;1038243;28;20024;-75
2023/01/01 02:11:08;;;;;;;12.60;5.50;;;;;;;;;;1038426;28;20054;-75
2023/01/01 02:11:39;;;;;;;11.82;5.53;;;;;;;;;;1037467;28;20075;-75
2023/01/01 02:12:09;;;;;;;19.73;7.13;;;;;;;;;;1038441;28;20029;-74
2023/01/01 02:12:40;;;;;;;14.00;6.63;;;;;;;;;;1037968;28;20057;-74
2023/01/01 02:13:11;;;;;;;17.38;7.18;;;;;;;;;;1037989;28;20478;-74
2023/01/01 02:13:41;;;;;;;12.55;7.57;;;;;;;;;;1038845;28;20017;-74
2023/01/01 02:14:12;;;;;;;13.38;5.60;;;;;;;;;;1037291;28;20036;-74
2023/01/01 02:14:42;;;;;;;19.95;6.60;;;;;;;;;;1038571;28;20021;-74
2023/01/01 02:15:13;;;;;;;15.40;7.97;;;;;;;;;;1038100;28;20116;-74
2023/01/01 02:15:50;;;;;;;16.73;7.00;;;;;;;;;;1037916;28;20468;-75
2023/01/01 02:16:26;;;;;;;18.60;8.40;;;;;;;;;;1037682;28;20057;-75
2023/01/01 02:16:59;;;;;;;21.00;7.72;;;;;;;;;;1038617;28;20035;-74
2023/01/01 02:17:44;;;;;;;14.32;7.82;;;;;;;;;;1035872;28;20498;-74
2023/01/01 02:18:17;;;;;;;13.25;7.85;;;;;;;;;;1036699;28;20013;-74
2023/01/01 02:18:56;;;;;;;21.80;8.90;;;;;;;;;;1033758;28;20179;-74
2023/01/01 02:19:45;;;;;;;19.30;8.90;;;;;;;;;;1037273;28;20068;-74
2023/01/01 02:20:22;;;;;;;17.27;8.82;;;;;;;;;;1038212;28;20244;-74
2023/01/01 02:20:59;;;;;;;17.90;8.30;;;;;;;;;;1038218;28;20034;-74
2023/01/01 02:21:33;;;;;;;18.27;8.15;;;;;;;;;;1033133;28;20030;-74
2023/01/01 02:22:10;;;;;;;19.73;8.05;;;;;;;;;;1033654;28;20018;-75
2023/01/01 02:22:55;;;;;;;21.73;9.32;;;;;;;;;;1036560;28;20160;-74
2023/01/01 02:23:31;;;;;;;17.77;8.73;;;;;;;;;;1037412;28;20473;-74
2023/01/01 02:24:34;;;;;;;22.60;9.85;;;;;;;;;;1038241;28;20061;-74
2023/01/01 02:25:13;;;;;;;22.23;10.90;;;;;;;;;;1028165;28;20014;-75
2023/01/01 02:25:47;;;;;;;19.55;7.97;;;;;;;;;;1027780;28;20058;-74
2023/01/01 02:26:37;;;;;;;23.25;10.20;;;;;;;;;;1029673;28;20109;-74
2023/01/01 02:27:21;;;;;;;18.95;9.23;;;;;;;;;;1036102;28;20037;-74
2023/01/01 02:28:00;;;;;;;18.58;9.63;;;;;;;;;;1034382;28;20494;-74
2023/01/01 02:28:36;;;;;;;19.50;9.82;;;;;;;;;;1038271;28;20030;-74
2023/01/01 02:29:10;;;;;;;27.38;10.10;;;;;;;;;;1037477;28;20025;-74
2023/01/01 02:29:55;;;;;;;18.52;9.25;;;;;;;;;;1037613;28;20521;-74
2023/01/01 02:30:28;;;;;;;20.88;9.80;;;;;;;;;;1037736;28;20104;-74
2023/01/01 02:30:59;;;;;;;19.77;8.77;;;;;;;;;;1038602;28;20033;-74
2023/01/01 02:31:31;;;;;;;20.98;8.98;;;;;;;;;;1038153;28;20508;-75
2023/01/01 02:32:04;;;;;;;19.13;8.15;;;;;;;;;;1037147;28;20455;-75
2023/01/01 02:32:43;;;;;;;17.77;7.97;;;;;;;;;;1038007;28;20116;-74
2023/01/01 02:33:16;;;;;;;14.45;7.00;;;;;;;;;;1038226;28;20025;-74
2023/01/01 02:33:48;;;;;;;22.63;8.43;;;;;;;;;;1034190;28;20041;-75
2023/01/01 02:34:20;;;;;;;23.85;6.95;;;;;;;;;;1033232;28;20026;-75
2023/01/01 02:34:54;;;;;;;21.45;7.82;;;;;;;;;;1034625;28;20028;-75
2023/01/01 02:35:33;;;;;;;18.35;8.60;;;;;;;;;;1034384;28;20076;-75
2023/01/01 02:36:05;;;;;;;21.77;8.25;;;;;;;;;;1033451;28;21042;-74
2023/01/01 02:36:39;;;;;;;13.57;6.93;;;;;;;;;;1036040;28;20030;-74
2023/01/01 02:37:11;;;;;;;10.75;6.40;;;;;;;;;;1034723;28;20488;-74
2023/01/01 02:37:42;;;;;;;15.38;7.80;;;;;;;;;;1038718;28;20562;-74
2023/01/01 02:38:15;;;;;;;12.60;5.97;;;;;;;;;;1041780;28;20025;-75
2023/01/01 02:38:48;;;;;;;14.32;6.85;;;;;;;;;;1041146;28;20076;-74
2023/01/01 02:39:21;;;;;;;16.50;6.50;;;;;;;;;;1038122;28;20068;-74
2023/01/01 02:39:55;;;;;;;12.93;6.15;;;;;;;;;;1037718;28;20025;-74
2023/01/01 02:40:26;;;;;;;12.13;5.13;;;;;;;;;;1038135;28;20018;-74
2023/01/01 02:41:05;;;;;;;13.55;6.30;;;;;;;;;;1038577;28;20393;-74
2023/01/01 02:41:39;;;;;;;14.38;6.03;;;;;;;;;;1037218;28;20056;-74
2023/01/01 02:42:09;;;;;;;11.02;5.97;;;;;;;;;;1037339;28;20029;-74
2023/01/01 02:42:40;;;;;;;11.63;5.13;;;;;;;;;;1038128;28;20075;-74
2023/01/01 02:43:10;;;;;;;11.23;5.78;;;;;;;;;;1038010;28;20113;-74
2023/01/01 02:43:41;;;;;;;12.65;6.10;;;;;;;;;;1038030;28;20519;-74
2023/01/01 02:44:12;;;;;;;16.77;6.95;;;;;;;;;;1037557;28;20059;-75
2023/01/01 02:44:44;;;;;;;18.52;6.78;;;;;;;;;;1037757;28;20366;-75
2023/01/01 02:45:14;;;;;;;13.20;6.35;;;;;;;;;;1035959;28;20536;-74
2023/01/01 02:45:45;;;;;;;11.60;6.07;;;;;;;;;;1036748;28;20123;-74
2023/01/01 02:46:16;;;;;;;14.13;6.10;;;;;;;;;;1037629;28;20484;-74
2023/01/01 02:46:47;;;;;;;13.45;5.63;;;;;;;;;;1037925;28;20501;-75
2023/01/01 02:47:18;;;;;;;13.55;6.10;;;;;;;;;;1036094;28;20025;-74
2023/01/01 02:47:49;;;;;;;17.40;6.35;;;;;;;;;;1038004;28;20034;-74
2023/01/01 02:48:37;;;;;;;12.63;6.55;;;;;;;;;;1038184;28;20029;-75
2023/01/01 02:49:08;;;;;;;11.38;5.93;;;;;;;;;;1037613;28;20499;-75
2023/01/01 02:50:03;;;;;;;18.70;5.88;;;;;;;;;;1036949;28;20032;-74
2023/01/01 02:50:34;;;;;;;12.88;6.00;;;;;;;;;;1033823;28;20057;-74
2023/01/01 02:51:13;;;;;;;12.30;6.22;;;;;;;;;;1037450;28;20032;-74
2023/01/01 02:51:44;;;;;;;13.30;6.47;;;;;;;;;;1036341;28;20354;-74
2023/01/01 02:52:20;;;;;;;16.05;6.20;;;;;;;;;;1037610;28;20033;-74
2023/01/01 02:53:05;;;;;;;14.50;6.47;;;;;;;;;;1037107;28;20021;-74
2023/01/01 02:53:37;;;;;;;12.43;5.57;;;;;;;;;;1038020;28;20072;-75
2023/01/01 02:54:08;;;;;;;15.32;7.10;;;;;;;;;;1037866;28;20024;-75
2023/01/01 02:55:00;;;;;;;17.70;7.47;;;;;;;;;;1038784;28;20053;-74
2023/01/01 02:55:36;;;;;;;14.15;5.90;;;;;;;;;;1037814;28;20116;-74
2023/01/01 02:56:25;;;;;;;12.73;6.95;;;;;;;;;;1038592;28;20095;-75
2023/01/01 02:56:58;;;;;;;15.25;7.10;;;;;;;;;;1038100;28;20382;-75
2023/01/01 02:57:41;;;;;;;12.98;5.38;;;;;;;;;;1038067;28;20368;-75
2023/01/01 03:00:18;;;;;;;13.60;6.55;;;;;;;;;;1038163;28;21491;-75
2023/01/01 03:00:49;;;;;;;12.05;6.63;;;;;;;;;;1037465;28;20044;-75
2023/01/01 03:01:25;;;;;;;15.55;5.78;;;;;;;;;;1037408;28;20064;-74
2023/01/01 03:02:07;;;;;;;16.63;6.70;;;;;;;;;;1037187;28;20501;-75
2023/01/01 03:02:53;;;;;;;11.80;5.68;;;;;;;;;;1037279;28;20029;-74
2023/01/01 03:03:35;;;;;;;12.02;5.95;;;;;;;;;;1038469;28;20061;-74
2023/01/01 03:04:11;;;;;;;14.85;6.65;;;;;;;;;;1037636;28;20025;-74
2023/01/01 03:04:45;;;;;;;21.65;6.35;;;;;;;;;;1038171;28;20024;-74
2023/01/01 03:05:15;;;;;;;20.67;7.15;;;;;;;;;;1038112;28;20111;-75
2023/01/01 03:06:46;;;;;;;15.95;6.57;;;;;;;;;;1038150;28;20029;-75
2023/01/01 03:07:23;;;;;;;17.92;6.88;;;;;;;;;;1038157;28;20529;-75
2023/01/01 03:08:05;;;;;;;13.23;5.88;;;;;;;;;;1037773;28;20025;-75
2023/01/01 03:08:42;;;;;;;12.60;5.43;;;;;;;;;;1038483;28;20013;-74
2023/01/01 03:09:12;;;;;;;17.92;6.70;;;;;;;;;;1038190;28;20048;-75
2023/01/01 03:09:49;;;;;;;17.45;6.82;;;;;;;;;;1038521;28;20135;-74
2023/01/01 03:10:38;;;;;;;11.48;5.85;;;;;;;;;;1037817;28;20017;-75
2023/01/01 03:11:10;;;;;;;12.93;5.85;;;;;;;;;;1037723;28;20568;-74
2023/01/01 03:11:47;;;;;;;10.77;5.20;;;;;;;;;;1037744;28;20394;-74
2023/01/01 03:12:42;;;;;;;13.65;7.32;;;;;;;;;;1035889;28;20057;-74
2023/01/01 03:13:15;;;;;;;12.57;6.07;;;;;;;;;;1033988;28;20026;-74
2023/01/01 03:13:55;;;;;;;17.15;7.93;;;;;;;;;;1033142;28;20076;-74
2023/01/01 03:14:26;;;;;;;14.45;7.30;;;;;;;;;;1033631;28;20037;-74
2023/01/01 03:15:03;;;;;;;12.82;5.70;;;;;;;;;;1035764;28;20133;-74
2023/01/01 03:15:41;;;;;;;12.25;6.30;;;;;;;;;;1037960;28;20029;-74
2023/01/01 03:16:12;;;;;;;13.00;7.35;;;;;;;;;;1037072;28;20057;-74
2023/01/01 03:17:03;;;;;;;13.85;5.88;;;;;;;;;;1038243;28;20022;-75
2023/01/01 03:17:37;;;;;;;14.00;6.68;;;;;;;;;;1036304;28;20030;-74
2023/01/01 03:18:14;;;;;;;12.68;7.70;;;;;;;;;;1037210;28;20531;-75
2023/01/01 03:18:45;;;;;;;18.33;9.98;;;;;;;;;;1038019;28;20465;-74
2023/01/01 03:19:18;;;;;;;20.55;9.88;;;;;;;;;;1036952;28;20025;-74